createdAt,value
2023-04-19T00:03:37.767Z,5.00
2023-04-19T00:08:40.687Z,4.13
2023-04-19T00:13:43.241Z,2.72
2023-04-19T00:18:45.894Z,2.03
2023-04-19T00:23:58.507Z,2.17
2023-04-19T00:29:06.850Z,2.13
2023-04-19T00:34:10.625Z,1.60
2023-04-19T00:39:13.475Z,1.58
2023-04-19T00:44:26.283Z,1.88
2023-04-19T00:49:29.290Z,1.88
2023-04-19T00:54:33.399Z,3.15
2023-04-19T00:59:46.294Z,1.45
2023-04-19T01:04:48.968Z,2.72
2023-04-19T01:09:53.026Z,3.03
2023-04-19T01:14:55.526Z,2.00
2023-04-19T01:20:04.818Z,2.70
2023-04-19T01:25:08.284Z,1.10
2023-04-19T01:30:11.576Z,1.10
2023-04-19T01:35:14.165Z,3.25
2023-04-19T01:40:17.419Z,1.23
2023-04-19T01:45:30.258Z,1.58
2023-04-19T01:50:43.023Z,3.03
2023-04-19T01:55:46.961Z,2.13
2023-04-19T02:00:49.528Z,1.50
2023-04-19T02:05:55.490Z,2.97
2023-04-19T02:10:58.038Z,1.77
2023-04-19T02:16:03.135Z,3.30
2023-04-19T02:21:07.030Z,1.85
2023-04-19T02:26:21.093Z,1.50
2023-04-19T02:31:24.334Z,1.73
2023-04-19T02:36:27.429Z,6.10
2023-04-19T02:41:29.973Z,3.47
2023-04-19T02:46:32.907Z,1.55
2023-04-19T02:51:44.528Z,1.50
2023-04-19T02:56:48.280Z,1.80
2023-04-19T03:01:51.588Z,2.73
2023-04-19T03:06:56.584Z,5.47
2023-04-19T03:11:59.102Z,3.75
2023-04-19T03:17:02.141Z,9.65
2023-04-19T03:22:04.755Z,1.88
2023-04-19T03:27:07.468Z,3.55
2023-04-19T03:32:10.385Z,4.63
2023-04-19T03:37:13.040Z,1.73
2023-04-19T03:42:15.566Z,2.58
2023-04-19T03:47:19.779Z,2.57
2023-04-19T03:52:22.382Z,2.70
2023-04-19T03:57:25.008Z,4.75
2023-04-19T04:02:40.281Z,5.22
2023-04-19T04:07:43.000Z,2.10
2023-04-19T04:12:45.647Z,2.42
2023-04-19T04:17:48.429Z,1.85
2023-04-19T04:22:52.607Z,2.13
2023-04-19T04:27:55.491Z,2.65
2023-04-19T04:33:03.742Z,3.85
2023-04-19T04:38:17.489Z,3.67
2023-04-19T04:43:30.080Z,4.55
2023-04-19T04:48:32.773Z,4.38
2023-04-19T04:53:38.655Z,3.78
2023-04-19T04:58:41.285Z,4.63
2023-04-19T05:03:43.951Z,4.13
2023-04-19T05:08:46.640Z,3.67
2023-04-19T05:13:59.237Z,2.67
2023-04-19T05:19:02.047Z,4.22
2023-04-19T05:24:05.328Z,7.55
2023-04-19T05:29:08.143Z,7.15
2023-04-19T05:34:10.688Z,4.53
2023-04-19T05:39:13.457Z,11.35
2023-04-19T05:44:16.370Z,4.38
2023-04-19T05:49:19.104Z,4.57
2023-04-19T05:54:22.004Z,6.43
2023-04-19T05:59:29.413Z,4.47
2023-04-19T06:04:32.493Z,9.90
2023-04-19T06:09:35.453Z,1.92
2023-04-19T06:14:38.817Z,3.88
2023-04-19T06:19:42.247Z,19.15
2023-04-19T06:24:50.464Z,6.32
2023-04-19T06:29:53.234Z,5.32
2023-04-19T06:34:55.937Z,5.32
2023-04-19T06:39:58.710Z,38.88
2023-04-19T06:45:02.240Z,6.65
2023-04-19T06:50:05.037Z,3.83
2023-04-19T06:55:08.308Z,4.32
2023-04-19T07:00:12.289Z,6.47
2023-04-19T07:05:15.003Z,3.83
2023-04-19T07:10:18.349Z,4.38
2023-04-19T07:15:22.695Z,3.08
2023-04-19T07:20:25.694Z,2.55
2023-04-19T07:25:28.721Z,3.75
2023-04-19T07:30:31.316Z,2.90
2023-04-19T07:35:33.888Z,9.02
2023-04-19T07:40:36.791Z,8.55
2023-04-19T07:45:39.632Z,5.80
2023-04-19T07:50:42.252Z,4.50
2023-04-19T07:55:45.602Z,6.32
2023-04-19T08:00:51.797Z,10.15
2023-04-19T08:05:54.815Z,4.88
2023-04-19T08:10:58.007Z,4.70
2023-04-19T08:21:07.351Z,2.97
2023-04-19T08:26:10.276Z,6.28
2023-04-19T08:31:13.242Z,2.65
2023-04-19T08:36:35.902Z,3.92
2023-04-19T08:41:40.964Z,5.30
2023-04-19T08:46:44.930Z,4.17
2023-04-19T08:51:51.263Z,9.77
2023-04-19T08:56:55.521Z,8.90
2023-04-19T09:07:04.673Z,4.07
2023-04-19T09:12:18.754Z,7.13
2023-04-19T09:17:21.588Z,6.70
2023-04-19T09:22:25.128Z,3.88
2023-04-19T09:27:33.263Z,3.20
2023-04-19T09:32:49.676Z,2.95
2023-04-19T09:38:06.094Z,2.90
2023-04-19T09:43:32.918Z,5.38
2023-04-19T09:48:33.006Z,2.38
2023-04-19T09:53:35.765Z,4.93
2023-04-19T09:58:49.931Z,4.13
2023-04-19T10:03:55.351Z,3.55
2023-04-19T10:09:02.003Z,2.45
2023-04-19T10:14:06.901Z,3.35
2023-04-19T10:19:13.553Z,3.85
2023-04-19T10:24:19.222Z,17.27
2023-04-19T10:29:52.617Z,3.80
2023-04-19T10:34:56.451Z,5.15
2023-04-19T10:40:06.102Z,5.55
2023-04-19T10:45:35.260Z,4.15
2023-04-19T10:51:03.821Z,3.13
2023-04-19T10:56:06.609Z,2.33
2023-04-19T11:01:32.842Z,4.43
2023-04-19T11:06:36.320Z,3.35
2023-04-19T11:11:38.966Z,5.17
2023-04-19T11:16:51.642Z,3.05
2023-04-19T11:21:59.668Z,3.92
2023-04-19T11:27:09.252Z,4.88
2023-04-19T11:32:11.873Z,6.90
2023-04-19T11:37:14.436Z,6.47
2023-04-19T11:42:21.222Z,3.20
2023-04-19T11:47:24.182Z,5.80
2023-04-19T11:52:27.623Z,1.95
2023-04-19T11:57:31.813Z,42.43
2023-04-19T12:08:04.504Z,9.23
2023-04-19T12:13:19.627Z,10.43
2023-04-19T12:18:22.331Z,3.63
2023-04-19T12:23:35.020Z,2.95
2023-04-19T12:28:37.518Z,6.15
2023-04-19T12:33:40.694Z,4.97
2023-04-19T12:38:43.740Z,14.30
2023-04-19T12:43:46.315Z,7.20
2023-04-19T12:48:52.034Z,2.92
2023-04-19T12:53:55.236Z,2.53
2023-04-19T12:58:57.866Z,3.03
2023-04-19T13:04:00.513Z,4.63
2023-04-19T13:09:11.497Z,2.70
2023-04-19T13:14:16.833Z,1.67
2023-04-19T13:19:19.905Z,2.08
2023-04-19T13:24:22.574Z,3.00
2023-04-19T13:29:25.175Z,5.28
2023-04-19T13:34:28.014Z,3.13
2023-04-19T13:39:30.628Z,4.55
2023-04-19T13:44:34.201Z,2.17
2023-04-19T13:49:37.379Z,3.83
2023-04-19T13:54:39.883Z,3.65
2023-04-19T13:59:44.130Z,2.20
2023-04-19T14:05:03.532Z,3.65
2023-04-19T14:10:08.060Z,5.07
2023-04-19T14:15:11.708Z,2.10
2023-04-19T14:20:14.922Z,3.08
2023-04-19T14:25:19.076Z,1.52
2023-04-19T14:30:21.902Z,3.97
2023-04-19T14:35:25.636Z,2.92
2023-04-19T14:40:28.201Z,3.58
2023-04-19T14:45:31.164Z,4.43
2023-04-19T14:50:34.070Z,61.17
2023-04-19T14:55:38.410Z,9.30
2023-04-19T15:00:51.415Z,3.03
2023-04-19T15:06:04.757Z,5.30
2023-04-19T15:11:07.943Z,3.00
2023-04-19T15:16:10.767Z,3.35
2023-04-19T15:21:13.886Z,3.33
2023-04-19T15:26:17.213Z,5.15
2023-04-19T15:31:19.952Z,151.98
2023-04-19T15:36:22.533Z,10.13
2023-04-19T15:41:25.238Z,4.25
2023-04-19T15:46:31.461Z,4.40
2023-04-19T15:51:34.149Z,5.65
2023-04-19T15:56:36.790Z,4.57
2023-04-19T16:01:39.616Z,4.82
2023-04-19T16:06:42.191Z,10.18
2023-04-19T16:11:44.882Z,2.38
2023-04-19T16:16:47.432Z,4.13
2023-04-19T16:21:52.369Z,2.67
2023-04-19T16:27:05.979Z,3.13
2023-04-19T16:32:09.078Z,3.30
2023-04-19T16:37:11.634Z,3.90
2023-04-19T16:42:14.152Z,3.80
2023-04-19T16:47:26.966Z,2.03
2023-04-19T16:52:39.817Z,1.85
2023-04-19T16:57:42.843Z,2.38
2023-04-19T17:02:45.884Z,2.05
2023-04-19T17:07:52.350Z,2.20
2023-04-19T17:12:56.363Z,3.20
2023-04-19T17:17:59.130Z,2.50
2023-04-19T17:23:24.508Z,7.32
2023-04-19T17:29:12.961Z,32.75
2023-04-19T17:34:23.932Z,12.27
2023-04-19T17:39:28.655Z,7.15
2023-04-19T17:44:31.658Z,131.50
2023-04-19T17:49:34.590Z,371.25
2023-04-19T17:54:37.227Z,907.70
2023-04-19T17:59:39.898Z,457.10
2023-04-19T18:04:45.412Z,365.52
2023-04-19T18:09:49.250Z,365.15
2023-04-19T18:14:51.941Z,22.02
2023-04-19T18:19:54.726Z,12.27
2023-04-19T18:24:57.555Z,8.25
2023-04-19T18:30:00.249Z,12.02
2023-04-19T18:35:06.165Z,8.25
2023-04-19T18:40:09.523Z,6.22
2023-04-19T18:45:12.442Z,23.83
2023-04-19T18:50:19.051Z,317.00
2023-04-19T18:55:21.944Z,117.10
2023-04-19T19:00:26.173Z,196.48
2023-04-19T19:05:38.845Z,5.90
2023-04-19T19:16:01.872Z,16.65
2023-04-19T19:21:09.990Z,28.38
2023-04-19T19:26:14.112Z,24.15
2023-04-19T19:31:37.145Z,147.88
2023-04-19T19:36:40.389Z,40.10
2023-04-19T19:46:48.967Z,8.45
2023-04-19T19:51:58.655Z,77.53
2023-04-19T20:02:08.459Z,8.13
2023-04-19T20:12:18.862Z,13.50
2023-04-19T20:17:21.510Z,18.05
2023-04-19T20:22:24.178Z,22.00
2023-04-19T20:27:26.774Z,40.10
2023-04-19T20:32:29.320Z,15.38
2023-04-19T20:37:32.272Z,13.15
2023-04-19T20:42:34.853Z,89.85
2023-04-19T20:47:40.711Z,12.50
2023-04-19T20:52:43.407Z,11.45
2023-04-19T20:57:46.896Z,17.33
2023-04-19T21:02:50.354Z,10.13
2023-04-19T21:07:55.494Z,120.20
2023-04-19T21:12:58.056Z,181.98
2023-04-19T21:18:00.650Z,44.80
2023-04-19T21:23:04.212Z,14.20
2023-04-19T21:28:07.012Z,9.65
2023-04-19T21:33:11.105Z,9.13
2023-04-19T21:38:14.506Z,15.48
2023-04-19T21:43:18.054Z,13.55
2023-04-19T21:48:21.942Z,16.92
2023-04-19T21:53:25.362Z,15.43
2023-04-19T21:58:28.666Z,41.00
2023-04-19T22:03:32.563Z,7.80
2023-04-19T22:08:36.456Z,8.30
2023-04-19T22:13:39.885Z,8.20
2023-04-19T22:18:43.251Z,9.27
2023-04-19T22:23:56.660Z,9.85
2023-04-19T22:28:59.937Z,10.15
2023-04-19T22:34:03.475Z,9.35
2023-04-19T22:39:07.696Z,8.18
2023-04-19T22:44:11.174Z,9.95
2023-04-19T22:49:15.139Z,13.48
2023-04-19T22:54:21.936Z,11.38
2023-04-19T22:59:25.258Z,11.32
2023-04-19T23:04:33.849Z,7.50
2023-04-19T23:09:40.093Z,11.32
2023-04-19T23:14:43.619Z,29.13
2023-04-19T23:19:47.192Z,21.20
2023-04-19T23:24:50.555Z,36.47
2023-04-19T23:29:54.172Z,14.75
2023-04-19T23:34:57.945Z,9.00
2023-04-19T23:40:01.523Z,8.93
2023-04-19T23:45:06.352Z,10.35
2023-04-19T23:50:10.429Z,7.78
2023-04-19T23:55:14.069Z,10.97
